sensor_id;sensor_type;location;lat;lon;timestamp;temperature;humidity
827;DHT22;395;48.132;11.608;2023-07-13T00:31:33;21.10;30.10
827;DHT22;395;48.132;11.608;2023-07-13T00:34:03;21.20;30.20
827;DHT22;395;48.132;11.608;2023-07-13T00:36:30;21.10;28.10
827;DHT22;395;48.132;11.608;2023-07-13T00:38:56;21.10;29.00
827;DHT22;395;48.132;11.608;2023-07-13T00:41:22;21.10;30.90
827;DHT22;395;48.132;11.608;2023-07-13T00:43:47;21.00;29.70
827;DHT22;395;48.132;11.608;2023-07-13T00:46:18;21.00;30.00
827;DHT22;395;48.132;11.608;2023-07-13T00:48:45;21.00;29.90
827;DHT22;395;48.132;11.608;2023-07-13T00:51:12;21.10;32.10
827;DHT22;395;48.132;11.608;2023-07-13T00:53:38;21.00;27.80
827;DHT22;395;48.132;11.608;2023-07-13T00:56:05;21.00;33.50
827;DHT22;395;48.132;11.608;2023-07-13T00:58:32;21.00;29.70
827;DHT22;395;48.132;11.608;2023-07-13T01:00:58;21.10;29.80
827;DHT22;395;48.132;11.608;2023-07-13T01:03:24;21.10;30.00
827;DHT22;395;48.132;11.608;2023-07-13T01:05:50;21.10;30.80
827;DHT22;395;48.132;11.608;2023-07-13T01:08:17;21.10;31.00
827;DHT22;395;48.132;11.608;2023-07-13T01:10:52;21.10;32.70
827;DHT22;395;48.132;11.608;2023-07-13T01:13:18;21.10;30.60
827;DHT22;395;48.132;11.608;2023-07-13T01:15:47;21.10;29.60
827;DHT22;395;48.132;11.608;2023-07-13T01:18:27;21.10;30.70
827;DHT22;395;48.132;11.608;2023-07-13T01:23:20;21.10;27.60
827;DHT22;395;48.132;11.608;2023-07-13T01:25:46;21.00;28.40
827;DHT22;395;48.132;11.608;2023-07-13T01:28:11;21.00;28.30
827;DHT22;395;48.132;11.608;2023-07-13T01:30:38;21.00;27.40
827;DHT22;395;48.132;11.608;2023-07-13T01:33:06;21.00;28.60
827;DHT22;395;48.132;11.608;2023-07-13T01:35:33;21.00;29.40
827;DHT22;395;48.132;11.608;2023-07-13T01:37:58;21.00;29.00
827;DHT22;395;48.132;11.608;2023-07-13T01:40:26;21.00;29.30
827;DHT22;395;48.132;11.608;2023-07-13T01:42:52;21.00;28.20
827;DHT22;395;48.132;11.608;2023-07-13T01:45:18;21.00;28.30
827;DHT22;395;48.132;11.608;2023-07-13T01:47:43;21.00;28.90
827;DHT22;395;48.132;11.608;2023-07-13T01:50:09;21.00;29.60
827;DHT22;395;48.132;11.608;2023-07-13T01:52:35;20.90;26.10
827;DHT22;395;48.132;11.608;2023-07-13T01:55:01;20.90;29.20
827;DHT22;395;48.132;11.608;2023-07-13T01:57:28;20.90;27.20
827;DHT22;395;48.132;11.608;2023-07-13T01:59:53;20.90;30.20
827;DHT22;395;48.132;11.608;2023-07-13T02:02:19;20.60;24.40
827;DHT22;395;48.132;11.608;2023-07-13T02:04:45;20.50;26.40
827;DHT22;395;48.132;11.608;2023-07-13T02:07:11;20.30;28.90
827;DHT22;395;48.132;11.608;2023-07-13T02:09:36;20.10;31.40
827;DHT22;395;48.132;11.608;2023-07-13T02:12:02;20.20;31.60
827;DHT22;395;48.132;11.608;2023-07-13T02:14:28;20.20;32.80
827;DHT22;395;48.132;11.608;2023-07-13T02:16:54;20.00;32.60
827;DHT22;395;48.132;11.608;2023-07-13T02:19:20;20.10;34.80
827;DHT22;395;48.132;11.608;2023-07-13T02:21:45;20.00;34.30
827;DHT22;395;48.132;11.608;2023-07-13T02:24:11;19.90;36.20
827;DHT22;395;48.132;11.608;2023-07-13T02:26:43;19.90;38.60
827;DHT22;395;48.132;11.608;2023-07-13T02:29:09;19.90;37.10
827;DHT22;395;48.132;11.608;2023-07-13T02:31:36;20.00;39.00
827;DHT22;395;48.132;11.608;2023-07-13T02:34:02;20.20;40.90
827;DHT22;395;48.132;11.608;2023-07-13T02:36:30;20.30;38.00
827;DHT22;395;48.132;11.608;2023-07-13T02:38:56;20.30;37.10
827;DHT22;395;48.132;11.608;2023-07-13T02:41:21;20.30;35.60
827;DHT22;395;48.132;11.608;2023-07-13T02:43:49;20.30;36.10
827;DHT22;395;48.132;11.608;2023-07-13T02:46:15;20.40;37.20
827;DHT22;395;48.132;11.608;2023-07-13T02:48:40;20.30;32.90
827;DHT22;395;48.132;11.608;2023-07-13T02:51:07;20.10;32.50
827;DHT22;395;48.132;11.608;2023-07-13T02:53:33;20.00;37.00
827;DHT22;395;48.132;11.608;2023-07-13T02:56:01;20.20;41.20
827;DHT22;395;48.132;11.608;2023-07-13T02:58:27;20.30;41.70
827;DHT22;395;48.132;11.608;2023-07-13T03:00:52;20.00;33.80
827;DHT22;395;48.132;11.608;2023-07-13T03:03:19;19.80;39.70
827;DHT22;395;48.132;11.608;2023-07-13T03:05:45;19.90;42.00
827;DHT22;395;48.132;11.608;2023-07-13T03:08:15;19.90;36.50
827;DHT22;395;48.132;11.608;2023-07-13T03:10:41;19.80;31.80
827;DHT22;395;48.132;11.608;2023-07-13T03:13:07;19.80;41.20
827;DHT22;395;48.132;11.608;2023-07-13T03:15:32;19.90;45.10
827;DHT22;395;48.132;11.608;2023-07-13T03:17:58;19.90;40.30
827;DHT22;395;48.132;11.608;2023-07-13T03:20:24;19.80;34.00
827;DHT22;395;48.132;11.608;2023-07-13T03:22:49;19.60;39.00
827;DHT22;395;48.132;11.608;2023-07-13T03:25:15;19.60;37.90
827;DHT22;395;48.132;11.608;2023-07-13T03:27:40;19.50;31.10
827;DHT22;395;48.132;11.608;2023-07-13T03:30:07;19.50;33.80
827;DHT22;395;48.132;11.608;2023-07-13T03:32:33;19.60;36.20
827;DHT22;395;48.132;11.608;2023-07-13T03:34:58;19.50;28.70
827;DHT22;395;48.132;11.608;2023-07-13T03:37:24;19.20;29.70
827;DHT22;395;48.132;11.608;2023-07-13T03:39:50;19.00;33.50
827;DHT22;395;48.132;11.608;2023-07-13T03:42:16;19.00;37.90
827;DHT22;395;48.132;11.608;2023-07-13T03:44:42;19.20;37.30
827;DHT22;395;48.132;11.608;2023-07-13T03:47:11;19.30;36.60
827;DHT22;395;48.132;11.608;2023-07-13T03:49:37;19.40;36.50
827;DHT22;395;48.132;11.608;2023-07-13T03:52:03;19.40;38.60
827;DHT22;395;48.132;11.608;2023-07-13T03:54:29;19.40;42.30
827;DHT22;395;48.132;11.608;2023-07-13T03:56:54;19.50;41.00
827;DHT22;395;48.132;11.608;2023-07-13T03:59:20;19.60;40.70
827;DHT22;395;48.132;11.608;2023-07-13T04:01:46;19.60;42.00
827;DHT22;395;48.132;11.608;2023-07-13T04:04:12;19.70;41.10
827;DHT22;395;48.132;11.608;2023-07-13T04:06:37;19.70;40.90
827;DHT22;395;48.132;11.608;2023-07-13T04:09:04;19.70;41.10
827;DHT22;395;48.132;11.608;2023-07-13T04:11:35;19.70;39.40
827;DHT22;395;48.132;11.608;2023-07-13T04:14:03;19.80;39.10
827;DHT22;395;48.132;11.608;2023-07-13T04:16:29;19.70;38.90
827;DHT22;395;48.132;11.608;2023-07-13T04:18:55;19.80;41.20
827;DHT22;395;48.132;11.608;2023-07-13T04:21:25;19.70;33.80
827;DHT22;395;48.132;11.608;2023-07-13T04:23:51;19.40;34.00
827;DHT22;395;48.132;11.608;2023-07-13T04:26:17;19.30;38.30
827;DHT22;395;48.132;11.608;2023-07-13T04:28:42;19.40;41.30
827;DHT22;395;48.132;11.608;2023-07-13T04:31:08;19.50;39.70
827;DHT22;395;48.132;11.608;2023-07-13T04:33:35;19.60;40.00
827;DHT22;395;48.132;11.608;2023-07-13T04:36:00;19.50;32.10
827;DHT22;395;48.132;11.608;2023-07-13T04:38:29;19.50;39.10
827;DHT22;395;48.132;11.608;2023-07-13T04:40:57;19.40;31.20
827;DHT22;395;48.132;11.608;2023-07-13T04:43:24;19.40;35.80
827;DHT22;395;48.132;11.608;2023-07-13T04:45:51;19.50;37.30
827;DHT22;395;48.132;11.608;2023-07-13T04:48:17;19.50;37.50
827;DHT22;395;48.132;11.608;2023-07-13T04:50:43;19.60;35.50
827;DHT22;395;48.132;11.608;2023-07-13T04:53:09;19.60;38.20
827;DHT22;395;48.132;11.608;2023-07-13T04:55:36;19.60;39.50
827;DHT22;395;48.132;11.608;2023-07-13T04:58:02;19.60;35.80
827;DHT22;395;48.132;11.608;2023-07-13T05:00:28;19.50;32.10
827;DHT22;395;48.132;11.608;2023-07-13T05:02:55;19.60;34.90
827;DHT22;395;48.132;11.608;2023-07-13T05:05:21;19.70;32.40
827;DHT22;395;48.132;11.608;2023-07-13T05:07:47;19.70;34.70
827;DHT22;395;48.132;11.608;2023-07-13T05:10:12;19.60;29.50
827;DHT22;395;48.132;11.608;2023-07-13T05:12:38;19.60;32.30
827;DHT22;395;48.132;11.608;2023-07-13T05:15:04;19.70;32.30
827;DHT22;395;48.132;11.608;2023-07-13T05:17:30;19.60;32.40
827;DHT22;395;48.132;11.608;2023-07-13T05:19:57;19.60;30.80
827;DHT22;395;48.132;11.608;2023-07-13T05:22:22;19.60;34.20
827;DHT22;395;48.132;11.608;2023-07-13T05:24:48;19.50;29.70
827;DHT22;395;48.132;11.608;2023-07-13T05:27:14;19.40;29.30
827;DHT22;395;48.132;11.608;2023-07-13T05:29:39;19.40;25.60
827;DHT22;395;48.132;11.608;2023-07-13T05:32:05;19.20;27.00
827;DHT22;395;48.132;11.608;2023-07-13T05:34:31;19.30;27.20
827;DHT22;395;48.132;11.608;2023-07-13T05:36:57;19.30;29.60
827;DHT22;395;48.132;11.608;2023-07-13T05:39:23;19.20;28.80
827;DHT22;395;48.132;11.608;2023-07-13T05:41:48;19.20;28.80
827;DHT22;395;48.132;11.608;2023-07-13T05:44:14;19.30;30.60
827;DHT22;395;48.132;11.608;2023-07-13T05:46:40;19.40;28.60
827;DHT22;395;48.132;11.608;2023-07-13T05:49:06;19.40;29.30
827;DHT22;395;48.132;11.608;2023-07-13T05:51:31;19.50;33.10
827;DHT22;395;48.132;11.608;2023-07-13T05:53:57;19.60;33.00
827;DHT22;395;48.132;11.608;2023-07-13T05:56:23;19.60;31.20
827;DHT22;395;48.132;11.608;2023-07-13T05:58:50;19.70;27.70
827;DHT22;395;48.132;11.608;2023-07-13T06:01:16;19.80;28.90
827;DHT22;395;48.132;11.608;2023-07-13T06:03:42;19.80;26.70
827;DHT22;395;48.132;11.608;2023-07-13T06:06:09;19.80;28.80
827;DHT22;395;48.132;11.608;2023-07-13T06:08:35;19.80;27.60
827;DHT22;395;48.132;11.608;2023-07-13T06:11:22;19.60;23.40
827;DHT22;395;48.132;11.608;2023-07-13T06:13:48;19.50;26.70
827;DHT22;395;48.132;11.608;2023-07-13T06:16:15;19.50;28.30
827;DHT22;395;48.132;11.608;2023-07-13T06:18:41;19.60;29.90
827;DHT22;395;48.132;11.608;2023-07-13T06:21:12;19.60;26.40
827;DHT22;395;48.132;11.608;2023-07-13T06:23:38;19.60;26.70
827;DHT22;395;48.132;11.608;2023-07-13T06:26:05;19.80;29.10
827;DHT22;395;48.132;11.608;2023-07-13T06:28:31;19.90;29.30
827;DHT22;395;48.132;11.608;2023-07-13T06:30:58;20.00;23.50
827;DHT22;395;48.132;11.608;2023-07-13T06:33:24;20.20;28.40
827;DHT22;395;48.132;11.608;2023-07-13T06:35:50;20.30;27.40
827;DHT22;395;48.132;11.608;2023-07-13T06:38:16;20.30;23.30
827;DHT22;395;48.132;11.608;2023-07-13T06:40:41;20.40;24.40
827;DHT22;395;48.132;11.608;2023-07-13T06:43:07;20.30;18.30
827;DHT22;395;48.132;11.608;2023-07-13T06:45:39;20.40;22.90
827;DHT22;395;48.132;11.608;2023-07-13T06:48:05;20.40;22.00
827;DHT22;395;48.132;11.608;2023-07-13T06:50:31;20.50;20.20
827;DHT22;395;48.132;11.608;2023-07-13T06:52:57;20.50;18.20
827;DHT22;395;48.132;11.608;2023-07-13T06:55:25;20.40;18.10
827;DHT22;395;48.132;11.608;2023-07-13T06:57:50;20.30;15.60
827;DHT22;395;48.132;11.608;2023-07-13T07:00:16;20.10;14.60
827;DHT22;395;48.132;11.608;2023-07-13T07:02:42;20.20;18.00
827;DHT22;395;48.132;11.608;2023-07-13T07:05:08;20.20;18.90
827;DHT22;395;48.132;11.608;2023-07-13T07:07:34;20.30;21.00
827;DHT22;395;48.132;11.608;2023-07-13T07:09:59;20.20;13.10
827;DHT22;395;48.132;11.608;2023-07-13T07:12:25;20.20;16.70
827;DHT22;395;48.132;11.608;2023-07-13T07:14:51;20.30;13.40
827;DHT22;395;48.132;11.608;2023-07-13T07:17:16;20.30;14.00
827;DHT22;395;48.132;11.608;2023-07-13T07:19:42;20.20;10.50
827;DHT22;395;48.132;11.608;2023-07-13T07:22:08;20.20;9.60
827;DHT22;395;48.132;11.608;2023-07-13T07:24:33;20.20;12.60
827;DHT22;395;48.132;11.608;2023-07-13T07:26:59;20.10;7.70
827;DHT22;395;48.132;11.608;2023-07-13T07:29:25;20.00;7.10
827;DHT22;395;48.132;11.608;2023-07-13T07:31:53;19.90;5.20
827;DHT22;395;48.132;11.608;2023-07-13T07:34:19;20.00;9.00
827;DHT22;395;48.132;11.608;2023-07-13T07:36:45;20.20;7.10
827;DHT22;395;48.132;11.608;2023-07-13T07:39:10;20.20;4.60
827;DHT22;395;48.132;11.608;2023-07-13T07:41:37;20.10;5.20
827;DHT22;395;48.132;11.608;2023-07-13T07:44:03;20.10;4.10
827;DHT22;395;48.132;11.608;2023-07-13T07:46:29;20.20;2.40
827;DHT22;395;48.132;11.608;2023-07-13T07:48:56;20.00;4.10
827;DHT22;395;48.132;11.608;2023-07-13T07:51:22;20.10;8.60
827;DHT22;395;48.132;11.608;2023-07-13T07:53:48;20.20;2.30
827;DHT22;395;48.132;11.608;2023-07-13T07:56:14;20.00;2.60
827;DHT22;395;48.132;11.608;2023-07-13T07:58:42;20.10;6.70
827;DHT22;395;48.132;11.608;2023-07-13T08:01:07;20.20;6.80
827;DHT22;395;48.132;11.608;2023-07-13T08:03:33;20.20;7.20
827;DHT22;395;48.132;11.608;2023-07-13T08:05:59;20.00;3.90
827;DHT22;395;48.132;11.608;2023-07-13T08:08:25;19.90;6.60
827;DHT22;395;48.132;11.608;2023-07-13T08:10:51;19.90;3.20
827;DHT22;395;48.132;11.608;2023-07-13T08:13:17;19.90;5.30
827;DHT22;395;48.132;11.608;2023-07-13T08:15:43;19.90;2.60
827;DHT22;395;48.132;11.608;2023-07-13T08:18:08;19.90;1.60
827;DHT22;395;48.132;11.608;2023-07-13T08:20:37;19.90;2.70
827;DHT22;395;48.132;11.608;2023-07-13T08:23:04;19.80;1.00
827;DHT22;395;48.132;11.608;2023-07-13T08:25:29;19.80;1.00
827;DHT22;395;48.132;11.608;2023-07-13T08:27:55;19.70;1.00
827;DHT22;395;48.132;11.608;2023-07-13T08:30:20;19.60;1.00
827;DHT22;395;48.132;11.608;2023-07-13T08:32:46;19.50;1.00
827;DHT22;395;48.132;11.608;2023-07-13T08:35:12;19.50;1.00
827;DHT22;395;48.132;11.608;2023-07-13T08:37:39;19.40;1.00
827;DHT22;395;48.132;11.608;2023-07-13T08:40:05;19.50;1.00
827;DHT22;395;48.132;11.608;2023-07-13T08:42:55;19.60;1.00
827;DHT22;395;48.132;11.608;2023-07-13T08:48:17;19.60;1.00
827;DHT22;395;48.132;11.608;2023-07-13T08:51:39;19.60;1.00
827;DHT22;395;48.132;11.608;2023-07-13T08:53:49;19.80;1.00
827;DHT22;395;48.132;11.608;2023-07-13T08:56:19;19.90;1.00
827;DHT22;395;48.132;11.608;2023-07-13T08:58:53;20.00;1.00
827;DHT22;395;48.132;11.608;2023-07-13T09:06:55;19.90;1.00
827;DHT22;395;48.132;11.608;2023-07-13T09:12:17;19.90;1.00
827;DHT22;395;48.132;11.608;2023-07-13T09:14:53;19.90;1.00
827;DHT22;395;48.132;11.608;2023-07-13T09:17:23;20.10;1.00
827;DHT22;395;48.132;11.608;2023-07-13T09:19:57;20.10;1.00
827;DHT22;395;48.132;11.608;2023-07-13T09:22:25;20.20;1.00
827;DHT22;395;48.132;11.608;2023-07-13T09:25:04;20.20;1.00
827;DHT22;395;48.132;11.608;2023-07-13T09:27:40;20.20;1.00
827;DHT22;395;48.132;11.608;2023-07-13T09:32:47;20.20;1.00
827;DHT22;395;48.132;11.608;2023-07-13T09:35:19;20.30;1.00
827;DHT22;395;48.132;11.608;2023-07-13T09:37:46;20.30;1.00
827;DHT22;395;48.132;11.608;2023-07-13T09:40:21;20.30;1.00
827;DHT22;395;48.132;11.608;2023-07-13T09:42:49;20.40;1.00
827;DHT22;395;48.132;11.608;2023-07-13T09:45:27;20.30;1.00
827;DHT22;395;48.132;11.608;2023-07-13T09:47:59;20.40;1.00
827;DHT22;395;48.132;11.608;2023-07-13T09:50:28;20.40;1.00
827;DHT22;395;48.132;11.608;2023-07-13T09:52:55;20.50;1.00
827;DHT22;395;48.132;11.608;2023-07-13T09:57:54;20.70;1.00
827;DHT22;395;48.132;11.608;2023-07-13T10:00:26;20.80;1.00
827;DHT22;395;48.132;11.608;2023-07-13T10:03:04;20.60;1.00
827;DHT22;395;48.132;11.608;2023-07-13T10:05:41;20.70;1.00
827;DHT22;395;48.132;11.608;2023-07-13T10:08:16;20.60;1.00
827;DHT22;395;48.132;11.608;2023-07-13T10:10:44;20.80;1.00
827;DHT22;395;48.132;11.608;2023-07-13T10:15:52;20.80;1.00
827;DHT22;395;48.132;11.608;2023-07-13T10:18:19;20.90;1.00
